createdAt,value
2022-09-13T00:00:07.428Z,1.53
2022-09-13T00:02:35.915Z,2.40
2022-09-13T00:05:04.067Z,1.80
2022-09-13T00:07:32.113Z,2.17
2022-09-13T00:10:00.244Z,4.87
2022-09-13T00:12:29.740Z,3.67
2022-09-13T00:14:58.319Z,2.63
2022-09-13T00:17:28.115Z,4.07
2022-09-13T00:19:56.097Z,1.70
2022-09-13T00:22:24.107Z,2.10
2022-09-13T00:24:52.123Z,3.63
2022-09-13T00:27:20.693Z,4.30
2022-09-13T00:29:48.819Z,3.77
2022-09-13T00:32:16.871Z,7.67
2022-09-13T00:34:46.224Z,3.10
2022-09-13T00:37:14.183Z,2.33
2022-09-13T00:39:43.495Z,2.80
2022-09-13T00:42:15.366Z,2.17
2022-09-13T00:44:59.184Z,1.50
2022-09-13T00:47:38.650Z,1.60
2022-09-13T00:50:16.538Z,2.53
2022-09-13T00:52:50.256Z,3.20
2022-09-13T00:55:25.978Z,5.97
2022-09-13T00:57:59.048Z,2.47
2022-09-13T01:00:27.291Z,1.50
2022-09-13T01:02:59.582Z,2.53
2022-09-13T01:08:32.245Z,4.80
2022-09-13T01:11:02.234Z,3.17
2022-09-13T01:13:33.909Z,4.87
2022-09-13T01:16:03.393Z,1.60
2022-09-13T01:18:31.549Z,2.23
2022-09-13T01:21:38.330Z,2.23
2022-09-13T01:24:37.446Z,3.37
2022-09-13T01:27:33.952Z,1.77
2022-09-13T01:30:22.090Z,3.17
2022-09-13T01:33:11.821Z,2.07
2022-09-13T01:35:55.907Z,1.80
2022-09-13T01:38:42.801Z,2.07
2022-09-13T01:41:32.755Z,5.23
2022-09-13T01:44:14.670Z,3.67
2022-09-13T01:46:52.355Z,2.33
2022-09-13T01:49:28.292Z,3.80
2022-09-13T01:52:07.646Z,1.40
2022-09-13T01:54:44.682Z,2.40
2022-09-13T01:57:18.804Z,3.50
2022-09-13T01:59:52.343Z,3.60
2022-09-13T02:02:28.018Z,2.40
2022-09-13T02:05:03.456Z,3.37
2022-09-13T02:07:37.384Z,2.70
2022-09-13T02:10:12.952Z,3.47
2022-09-13T02:12:44.273Z,1.73
2022-09-13T02:15:17.645Z,4.27
2022-09-13T02:17:51.954Z,4.80
2022-09-13T02:20:29.027Z,4.67
2022-09-13T02:23:03.900Z,3.03
2022-09-13T02:25:37.042Z,3.80
2022-09-13T02:28:12.920Z,3.53
2022-09-13T02:30:48.124Z,2.10
2022-09-13T02:33:25.502Z,1.93
2022-09-13T02:36:02.195Z,2.50
2022-09-13T02:38:37.614Z,3.60
2022-09-13T02:41:15.514Z,2.60
2022-09-13T02:43:51.974Z,2.13
2022-09-13T02:46:39.530Z,2.53
2022-09-13T02:49:18.683Z,2.20
2022-09-13T02:51:56.615Z,2.17
2022-09-13T02:54:31.592Z,2.00
2022-09-13T02:57:06.768Z,3.83
2022-09-13T02:59:35.019Z,4.83
2022-09-13T03:02:08.166Z,4.20
2022-09-13T03:04:38.042Z,3.37
2022-09-13T03:07:11.192Z,4.23
2022-09-13T03:09:43.581Z,3.10
2022-09-13T03:12:42.155Z,4.07
2022-09-13T03:15:22.574Z,1.57
2022-09-13T03:18:10.329Z,2.83
2022-09-13T03:20:51.088Z,2.77
2022-09-13T03:23:51.001Z,3.60
2022-09-13T03:26:40.455Z,2.83
2022-09-13T03:29:26.172Z,3.53
2022-09-13T03:32:13.295Z,10.90
2022-09-13T03:34:50.097Z,2.07
2022-09-13T03:37:28.461Z,3.40
2022-09-13T03:40:01.313Z,2.77
2022-09-13T03:42:35.834Z,3.87
2022-09-13T03:45:08.238Z,3.90
2022-09-13T03:47:40.014Z,3.17
2022-09-13T03:50:10.522Z,3.83
2022-09-13T03:52:42.250Z,3.57
2022-09-13T03:55:14.101Z,4.63
2022-09-13T03:57:42.324Z,3.33
2022-09-13T04:00:14.925Z,3.27
2022-09-13T04:02:43.273Z,1.90
2022-09-13T04:05:11.356Z,2.40
2022-09-13T04:07:40.673Z,4.37
2022-09-13T04:10:13.527Z,3.47
2022-09-13T04:12:42.361Z,2.57
2022-09-13T04:15:35.641Z,2.37
2022-09-13T04:18:04.476Z,3.43
2022-09-13T04:20:32.450Z,4.43
2022-09-13T04:23:01.770Z,3.50
2022-09-13T04:25:29.851Z,2.17
2022-09-13T04:27:59.879Z,1.97
2022-09-13T04:30:28.534Z,4.20
2022-09-13T04:32:59.455Z,2.50
2022-09-13T04:35:28.857Z,4.77
2022-09-13T04:37:57.891Z,2.40
2022-09-13T04:40:27.373Z,3.07
2022-09-13T04:42:55.352Z,2.10
2022-09-13T04:45:23.428Z,4.97
2022-09-13T04:47:53.837Z,2.03
2022-09-13T04:50:22.333Z,2.47
2022-09-13T04:52:51.912Z,2.77
2022-09-13T04:55:20.994Z,3.33
2022-09-13T04:57:54.854Z,1.60
2022-09-13T05:00:23.236Z,3.67
2022-09-13T05:02:55.233Z,3.53
2022-09-13T05:05:23.362Z,1.60
2022-09-13T05:07:52.034Z,2.00
2022-09-13T05:10:20.434Z,3.03
2022-09-13T05:12:49.885Z,1.63
2022-09-13T05:15:18.102Z,3.43
2022-09-13T05:17:46.025Z,2.27
2022-09-13T05:20:14.154Z,2.37
2022-09-13T05:22:42.183Z,2.40
2022-09-13T05:25:10.872Z,2.37
2022-09-13T05:27:38.908Z,1.60
2022-09-13T05:30:09.691Z,4.40
2022-09-13T05:32:37.733Z,2.50
2022-09-13T05:35:06.558Z,2.30
2022-09-13T05:37:37.717Z,3.00
2022-09-13T05:40:11.511Z,3.10
2022-09-13T05:42:40.164Z,2.53
2022-09-13T05:45:11.604Z,2.67
2022-09-13T05:47:39.769Z,2.50
2022-09-13T05:50:11.057Z,4.10
2022-09-13T05:52:44.051Z,3.00
2022-09-13T05:55:14.265Z,7.13
2022-09-13T05:57:42.339Z,1.97
2022-09-13T06:00:16.477Z,2.97
2022-09-13T06:02:44.483Z,2.57
2022-09-13T06:05:12.762Z,2.80
2022-09-13T06:07:42.383Z,2.10
2022-09-13T06:10:12.499Z,2.27
2022-09-13T06:12:40.741Z,3.43
2022-09-13T06:15:11.424Z,4.50
2022-09-13T06:17:43.191Z,5.00
2022-09-13T06:20:35.709Z,2.83
2022-09-13T06:23:03.690Z,2.73
2022-09-13T06:25:31.937Z,2.10
2022-09-13T06:27:59.980Z,1.93
2022-09-13T06:30:28.063Z,2.73
2022-09-13T06:32:58.770Z,2.90
2022-09-13T06:35:27.181Z,3.50
2022-09-13T06:37:57.854Z,2.37
2022-09-13T06:40:26.355Z,2.43
2022-09-13T06:42:54.448Z,2.93
2022-09-13T06:45:23.884Z,7.00
2022-09-13T06:47:55.808Z,3.70
2022-09-13T06:50:25.137Z,3.23
2022-09-13T06:52:53.101Z,8.50
2022-09-13T06:55:22.085Z,2.27
2022-09-13T06:57:50.093Z,3.33
2022-09-13T07:00:19.434Z,2.03
2022-09-13T07:02:52.693Z,3.63
2022-09-13T07:05:21.652Z,2.23
2022-09-13T07:07:51.024Z,3.00
2022-09-13T07:10:18.986Z,3.33
2022-09-13T07:12:47.778Z,2.40
2022-09-13T07:15:15.945Z,2.87
2022-09-13T07:17:43.930Z,1.63
2022-09-13T07:20:11.936Z,3.97
2022-09-13T07:22:39.894Z,2.83
2022-09-13T07:25:10.688Z,4.63
2022-09-13T07:27:38.705Z,3.00
2022-09-13T07:30:31.262Z,3.03
2022-09-13T07:32:59.241Z,1.60
2022-09-13T07:35:27.226Z,4.03
2022-09-13T07:37:55.221Z,4.00
2022-09-13T07:40:24.653Z,3.63
2022-09-13T07:42:52.937Z,2.87
2022-09-13T07:45:22.024Z,3.30
2022-09-13T07:47:53.624Z,3.60
2022-09-13T07:50:21.649Z,2.07
2022-09-13T07:52:50.946Z,6.47
2022-09-13T07:55:18.988Z,2.23
2022-09-13T07:57:48.279Z,1.97
2022-09-13T08:00:16.757Z,2.83
2022-09-13T08:02:44.837Z,4.33
2022-09-13T08:05:14.391Z,1.60
2022-09-13T08:07:42.368Z,2.43
2022-09-13T08:10:11.077Z,3.47
2022-09-13T08:12:39.062Z,2.63
2022-09-13T08:15:09.627Z,3.97
2022-09-13T08:17:37.680Z,3.13
2022-09-13T08:20:06.465Z,2.57
2022-09-13T08:22:34.444Z,3.43
2022-09-13T08:25:02.406Z,1.50
2022-09-13T08:27:30.411Z,3.00
2022-09-13T08:29:58.365Z,1.80
2022-09-13T08:32:27.708Z,3.93
2022-09-13T08:34:55.741Z,2.87
2022-09-13T08:37:23.729Z,2.87
2022-09-13T08:39:51.994Z,1.90
2022-09-13T08:42:30.385Z,1.77
2022-09-13T08:45:01.060Z,4.03
2022-09-13T08:47:41.258Z,2.20
2022-09-13T08:50:18.578Z,1.93
2022-09-13T08:52:58.423Z,2.20
2022-09-13T08:55:40.127Z,5.17
2022-09-13T08:58:29.287Z,7.60
2022-09-13T09:01:07.330Z,3.93
2022-09-13T09:03:47.082Z,4.83
2022-09-13T09:06:17.995Z,1.60
2022-09-13T09:08:51.830Z,5.27
2022-09-13T09:11:32.531Z,1.10
2022-09-13T09:14:10.026Z,2.03
2022-09-13T09:16:43.752Z,1.30
2022-09-13T09:19:21.902Z,2.30
2022-09-13T09:21:52.302Z,2.43
2022-09-13T09:24:25.468Z,1.40
2022-09-13T09:26:56.715Z,1.10
2022-09-13T09:29:28.988Z,2.13
2022-09-13T09:32:16.050Z,2.43
2022-09-13T09:34:57.078Z,1.73
2022-09-13T09:37:27.258Z,1.30
2022-09-13T09:40:01.804Z,1.00
2022-09-13T09:42:35.537Z,4.33
2022-09-13T09:45:19.447Z,2.73
2022-09-13T09:47:50.789Z,1.53
2022-09-13T09:50:24.691Z,1.97
2022-09-13T09:53:00.585Z,3.40
2022-09-13T09:55:31.648Z,2.57
2022-09-13T09:58:01.914Z,2.27
2022-09-13T10:00:35.472Z,1.67
2022-09-13T10:03:07.269Z,0.90
2022-09-13T10:05:36.879Z,2.47
2022-09-13T10:08:08.025Z,1.53
2022-09-13T10:10:41.622Z,0.87
2022-09-13T10:13:17.218Z,0.90
2022-09-13T10:15:55.462Z,1.00
2022-09-13T10:18:43.499Z,2.47
2022-09-13T10:21:25.232Z,2.60
2022-09-13T10:24:13.509Z,1.10
2022-09-13T10:26:41.632Z,2.10
2022-09-13T10:29:14.895Z,1.03
2022-09-13T10:31:46.270Z,1.70
2022-09-13T10:34:21.067Z,0.83
2022-09-13T10:36:56.975Z,0.70
2022-09-13T10:39:26.985Z,3.07
2022-09-13T10:41:59.533Z,1.67
2022-09-13T10:44:33.367Z,0.83
2022-09-13T10:47:07.237Z,0.73
2022-09-13T10:49:47.695Z,0.80
2022-09-13T10:52:33.146Z,0.83
2022-09-13T10:55:31.403Z,1.20
2022-09-13T10:58:19.495Z,2.13
2022-09-13T11:01:40.519Z,1.10
2022-09-13T11:05:14.836Z,1.10
2022-09-13T11:08:07.872Z,1.17
2022-09-13T11:10:46.247Z,3.23
2022-09-13T11:13:24.882Z,1.37
2022-09-13T11:16:00.974Z,2.13
2022-09-13T11:18:48.631Z,0.90
2022-09-13T11:21:39.591Z,1.53
2022-09-13T11:24:40.282Z,1.30
2022-09-13T11:27:20.880Z,2.10
2022-09-13T11:30:09.969Z,1.43
2022-09-13T11:32:58.585Z,0.40
2022-09-13T11:35:43.392Z,1.60
2022-09-13T11:38:33.518Z,0.70
2022-09-13T11:41:18.682Z,0.97
2022-09-13T11:44:33.265Z,0.63
2022-09-13T11:47:13.824Z,0.70
2022-09-13T11:50:16.680Z,1.27
2022-09-13T11:53:03.564Z,3.23
2022-09-13T11:55:36.785Z,3.83
2022-09-13T11:58:14.613Z,1.67
2022-09-13T12:00:47.418Z,2.20
2022-09-13T12:03:24.519Z,7.80
2022-09-13T12:05:57.522Z,2.87
2022-09-13T12:08:30.584Z,4.13
2022-09-13T12:11:03.819Z,14.80
2022-09-13T12:13:50.596Z,5.20
2022-09-13T12:16:25.803Z,4.83
2022-09-13T12:18:59.192Z,9.63
2022-09-13T12:21:32.032Z,1.83
2022-09-13T12:24:07.548Z,2.87
2022-09-13T12:26:41.898Z,2.70
2022-09-13T12:29:19.122Z,4.17
2022-09-13T12:31:47.444Z,1.57
2022-09-13T12:34:24.276Z,4.27
2022-09-13T12:37:13.806Z,2.43
2022-09-13T12:40:39.651Z,3.47
2022-09-13T12:44:09.050Z,1.60
2022-09-13T12:47:22.082Z,2.77
2022-09-13T12:50:42.481Z,2.80
2022-09-13T12:53:19.984Z,2.77
2022-09-13T12:56:23.597Z,2.27
2022-09-13T12:59:24.981Z,1.60
2022-09-13T13:01:54.661Z,1.67
2022-09-13T13:04:27.527Z,5.20
2022-09-13T13:07:00.755Z,2.77
2022-09-13T13:09:41.036Z,1.63
2022-09-13T13:12:10.293Z,1.83
2022-09-13T13:14:53.172Z,3.60
2022-09-13T13:17:47.170Z,1.43
2022-09-13T13:20:49.131Z,2.20
2022-09-13T13:23:25.694Z,2.00
2022-09-13T13:26:13.727Z,2.33
2022-09-13T13:29:19.780Z,1.57
2022-09-13T13:32:11.955Z,2.10
2022-09-13T13:34:49.044Z,1.57
2022-09-13T13:37:37.916Z,3.63
2022-09-13T13:40:26.998Z,2.10
2022-09-13T13:43:30.068Z,1.87
2022-09-13T13:46:31.094Z,3.27
2022-09-13T13:49:52.497Z,1.53
2022-09-13T13:52:41.042Z,1.27
2022-09-13T13:55:39.272Z,1.40
2022-09-13T13:58:27.842Z,1.50
2022-09-13T14:00:56.806Z,3.03
2022-09-13T14:03:42.773Z,2.13
2022-09-13T14:06:20.426Z,1.67
2022-09-13T14:09:12.273Z,2.93
2022-09-13T14:11:55.617Z,1.13
2022-09-13T14:14:42.182Z,1.67
2022-09-13T14:18:14.732Z,2.37
2022-09-13T14:21:02.209Z,2.10
2022-09-13T14:23:32.145Z,2.77
2022-09-13T14:26:02.547Z,2.67
2022-09-13T14:28:30.626Z,2.10
2022-09-13T14:31:00.152Z,1.83
2022-09-13T14:33:35.039Z,2.33
2022-09-13T14:36:08.000Z,1.73
2022-09-13T14:38:38.134Z,3.03
2022-09-13T14:41:18.232Z,1.83
2022-09-13T14:43:47.899Z,1.17
2022-09-13T14:46:22.201Z,2.37
2022-09-13T14:48:54.392Z,1.77
2022-09-13T14:51:28.262Z,3.60
2022-09-13T14:54:02.808Z,2.40
2022-09-13T14:56:37.770Z,1.50
2022-09-13T14:59:15.013Z,2.27
2022-09-13T15:01:43.141Z,1.53
2022-09-13T15:04:11.563Z,1.37
2022-09-13T15:06:42.265Z,1.30
2022-09-13T15:09:28.982Z,1.30
2022-09-13T15:12:01.050Z,1.50
2022-09-13T15:14:37.203Z,1.87
2022-09-13T15:17:11.337Z,1.10
2022-09-13T15:19:45.428Z,1.00
2022-09-13T15:22:20.992Z,1.17
2022-09-13T15:24:53.562Z,1.73
2022-09-13T15:27:27.012Z,1.67
2022-09-13T15:29:58.824Z,1.23
2022-09-13T15:32:35.660Z,1.73
2022-09-13T15:35:03.955Z,1.77
2022-09-13T15:37:36.948Z,1.33
2022-09-13T15:40:21.198Z,1.10
2022-09-13T15:42:51.561Z,2.67
2022-09-13T15:45:22.322Z,2.60
2022-09-13T15:47:52.505Z,2.87
2022-09-13T15:50:24.770Z,1.23
2022-09-13T15:52:52.754Z,1.60
2022-09-13T15:55:22.857Z,4.70
2022-09-13T15:57:51.318Z,2.03
2022-09-13T16:00:23.922Z,4.17
2022-09-13T16:02:52.572Z,3.10
2022-09-13T16:05:21.616Z,2.60
2022-09-13T16:07:50.282Z,1.50
2022-09-13T16:10:23.184Z,2.80
2022-09-13T16:12:51.560Z,1.43
2022-09-13T16:15:19.637Z,1.10
2022-09-13T16:17:47.801Z,1.43
2022-09-13T16:20:18.768Z,2.20
2022-09-13T16:22:47.042Z,1.23
2022-09-13T16:25:16.385Z,1.30
2022-09-13T16:27:46.597Z,1.10
2022-09-13T16:30:17.592Z,0.97
2022-09-13T16:32:46.656Z,1.23
2022-09-13T16:35:15.811Z,0.73
2022-09-13T16:37:44.397Z,0.87
2022-09-13T16:40:13.549Z,1.60
2022-09-13T16:42:41.640Z,0.87
2022-09-13T16:45:12.829Z,2.30
2022-09-13T16:47:42.306Z,1.97
2022-09-13T16:50:11.503Z,2.00
2022-09-13T16:52:39.790Z,0.77
2022-09-13T16:55:13.579Z,1.50
2022-09-13T16:57:41.839Z,0.87
2022-09-13T17:00:13.911Z,2.50
2022-09-13T17:02:42.124Z,3.20
2022-09-13T17:05:11.112Z,1.33
2022-09-13T17:07:39.243Z,1.40
2022-09-13T17:10:12.393Z,1.53
2022-09-13T17:12:41.241Z,4.00
2022-09-13T17:15:11.665Z,1.30
2022-09-13T17:17:39.741Z,2.30
2022-09-13T17:20:11.914Z,2.17
2022-09-13T17:22:40.581Z,3.83
2022-09-13T17:25:09.609Z,1.90
2022-09-13T17:27:37.761Z,3.10
2022-09-13T17:30:07.259Z,2.70
2022-09-13T17:32:36.657Z,2.03
2022-09-13T17:35:05.438Z,4.60
2022-09-13T17:37:33.489Z,1.20
2022-09-13T17:40:01.806Z,1.27
2022-09-13T17:42:29.958Z,1.40
2022-09-13T17:44:58.140Z,3.37
2022-09-13T17:47:26.322Z,2.43
2022-09-13T17:49:55.982Z,1.40
2022-09-13T17:52:23.913Z,3.17
2022-09-13T17:54:51.939Z,1.60
2022-09-13T17:57:19.985Z,1.70
2022-09-13T17:59:49.354Z,1.57
2022-09-13T18:02:17.822Z,1.77
2022-09-13T18:04:45.887Z,2.07
2022-09-13T18:07:15.342Z,2.47
2022-09-13T18:09:43.835Z,2.60
2022-09-13T18:12:11.986Z,3.13
2022-09-13T18:14:40.283Z,1.60
2022-09-13T18:17:12.996Z,2.17
2022-09-13T18:19:46.418Z,2.67
2022-09-13T18:22:16.425Z,1.50
2022-09-13T18:24:44.714Z,3.83
2022-09-13T18:27:12.782Z,1.10
2022-09-13T18:29:41.086Z,2.40
2022-09-13T18:32:09.111Z,3.23
2022-09-13T18:34:37.128Z,1.27
2022-09-13T18:37:05.636Z,1.23
2022-09-13T18:39:35.628Z,1.27
2022-09-13T18:42:03.682Z,1.00
2022-09-13T18:44:33.606Z,5.37
2022-09-13T18:47:02.898Z,1.20
2022-09-13T18:49:30.862Z,3.17
2022-09-13T18:51:58.837Z,7.50
2022-09-13T18:54:26.888Z,6.17
2022-09-13T18:56:56.994Z,14.93
2022-09-13T18:59:24.988Z,16.47
2022-09-13T19:01:53.071Z,15.97
2022-09-13T19:04:22.220Z,17.80
2022-09-13T19:06:52.294Z,14.03
2022-09-13T19:09:22.774Z,13.10
2022-09-13T19:11:53.720Z,15.57
2022-09-13T19:14:25.835Z,10.87
2022-09-13T19:16:56.826Z,8.50
2022-09-13T19:19:25.582Z,8.00
2022-09-13T19:21:53.602Z,8.30
2022-09-13T19:24:22.022Z,8.33
2022-09-13T19:26:52.464Z,6.50
2022-09-13T19:29:24.872Z,4.97
2022-09-13T19:31:55.668Z,5.60
2022-09-13T19:34:24.606Z,6.13
2022-09-13T19:36:58.151Z,5.53
2022-09-13T19:39:29.894Z,5.30
2022-09-13T19:42:00.655Z,6.97
2022-09-13T19:44:30.771Z,9.60
2022-09-13T19:47:45.054Z,6.00
2022-09-13T19:49:49.477Z,5.97
2022-09-13T19:52:17.642Z,8.20
2022-09-13T19:54:45.663Z,3.30
2022-09-13T19:57:13.615Z,3.40
2022-09-13T19:59:42.970Z,2.20
2022-09-13T20:02:11.713Z,3.23
2022-09-13T20:04:39.761Z,4.77
2022-09-13T20:07:12.022Z,4.17
2022-09-13T20:09:42.132Z,4.37
2022-09-13T20:12:11.362Z,3.43
2022-09-13T20:14:39.378Z,3.40
2022-09-13T20:17:08.893Z,4.63
2022-09-13T20:19:42.449Z,4.33
2022-09-13T20:22:11.774Z,2.80
2022-09-13T20:24:39.796Z,3.67
2022-09-13T20:27:08.250Z,3.60
2022-09-13T20:29:36.708Z,2.57
2022-09-13T20:32:04.793Z,4.13
2022-09-13T20:34:35.131Z,2.47
2022-09-13T20:37:03.899Z,3.77
2022-09-13T20:39:32.079Z,2.37
2022-09-13T20:42:00.102Z,4.57
2022-09-13T20:44:28.130Z,7.47
2022-09-13T20:46:56.137Z,5.57
2022-09-13T20:49:24.114Z,8.13
2022-09-13T20:51:53.697Z,7.43
2022-09-13T20:54:21.673Z,9.27
2022-09-13T20:56:49.777Z,9.70
2022-09-13T20:59:17.943Z,6.20
2022-09-13T21:01:46.049Z,7.00
2022-09-13T21:04:14.077Z,3.83
2022-09-13T21:07:03.483Z,4.87
2022-09-13T21:09:32.451Z,3.17
2022-09-13T21:12:01.953Z,3.80
2022-09-13T21:14:33.874Z,5.90
2022-09-13T21:17:04.100Z,6.97
2022-09-13T21:19:32.079Z,6.07
2022-09-13T21:22:01.757Z,6.77
2022-09-13T21:24:31.484Z,5.37
2022-09-13T21:27:00.955Z,6.03
2022-09-13T21:29:29.681Z,6.10
2022-09-13T21:31:57.723Z,3.00
2022-09-13T21:34:27.212Z,4.40
2022-09-13T21:36:55.443Z,3.10
2022-09-13T21:39:24.209Z,3.43
2022-09-13T21:41:52.646Z,9.13
2022-09-13T21:44:22.042Z,4.67
2022-09-13T21:46:51.400Z,5.10
2022-09-13T21:49:20.114Z,5.80
2022-09-13T21:51:50.166Z,5.57
2022-09-13T21:54:20.155Z,3.47
2022-09-13T21:56:52.319Z,4.03
2022-09-13T21:59:23.877Z,8.77
2022-09-13T22:01:54.122Z,3.33
2022-09-13T22:04:25.313Z,4.93
2022-09-13T22:06:54.621Z,2.33
2022-09-13T22:09:26.625Z,6.03
2022-09-13T22:11:54.879Z,5.20
2022-09-13T22:14:24.468Z,3.43
2022-09-13T22:16:53.622Z,4.00
2022-09-13T22:19:25.508Z,4.40
2022-09-13T22:21:56.775Z,5.20
2022-09-13T22:24:27.597Z,4.23
2022-09-13T22:26:58.158Z,7.77
2022-09-13T22:29:27.674Z,6.90
2022-09-13T22:31:56.431Z,4.83
2022-09-13T22:34:30.588Z,5.07
2022-09-13T22:37:00.056Z,3.80
2022-09-13T22:39:28.197Z,4.60
2022-09-13T22:41:56.238Z,6.27
2022-09-13T22:44:24.521Z,6.50
2022-09-13T22:46:54.621Z,7.30
2022-09-13T22:49:22.810Z,4.83
2022-09-13T22:51:50.840Z,3.67
2022-09-13T22:54:20.125Z,10.00
2022-09-13T22:56:48.386Z,7.10
2022-09-13T22:59:19.345Z,3.90
2022-09-13T23:01:47.788Z,5.07
2022-09-13T23:04:17.657Z,3.80
2022-09-13T23:06:46.109Z,3.70
2022-09-13T23:09:17.796Z,6.90
2022-09-13T23:11:46.839Z,6.20
2022-09-13T23:14:17.594Z,6.30
2022-09-13T23:16:49.978Z,6.00
2022-09-13T23:19:21.947Z,5.67
2022-09-13T23:21:50.220Z,6.37
2022-09-13T23:24:19.705Z,3.43
2022-09-13T23:26:48.122Z,4.73
2022-09-13T23:29:18.821Z,7.00
2022-09-13T23:31:47.601Z,5.70
2022-09-13T23:34:17.637Z,3.27
2022-09-13T23:36:48.042Z,3.53
2022-09-13T23:39:18.458Z,3.30
2022-09-13T23:41:49.108Z,4.50
2022-09-13T23:44:17.562Z,2.17
2022-09-13T23:46:46.297Z,3.07
2022-09-13T23:49:14.351Z,4.10
2022-09-13T23:51:42.698Z,5.30
2022-09-13T23:54:14.280Z,3.03
2022-09-13T23:56:42.534Z,3.57
2022-09-13T23:59:12.983Z,2.90
